Marechal Candido Rondon, Brazil
Current Conditions -  °F | °C
As of 12:00 PM on Saturday 25 Oct 2014 (Local Time) from SBCA Reporting Station
Scattered Clouds Scattered Clouds  
Wind Chill: 79°   Ceiling: Unl
Heat Index: 81°   Visibility: 6mi
Dew Point: 66°   Wind: 23mph
Humidity: 65%   Direction: 50°NE
Pressure: 30.03"   Gusts: NA
Location:  24.56°S, 54.06°W
Report Text: SBCA 251400Z 05020KT 9999 SCT020 26/19 Q1017
Loading
Personal Weather Stations






























Interactive Weather Map
Tropical Storm Tracking
New forecast layout! Learn more

10-Day Weather Forecast

Advertisements
Track Severe Weather on mobile